sensor_id;sensor_type;location;lat;lon;timestamp;temperature;humidity
10278;DHT22;5184;51.376;7.148;2023-08-20T00:02:04;19.00;99.90
10278;DHT22;5184;51.376;7.148;2023-08-20T00:04:30;19.00;99.90
10278;DHT22;5184;51.376;7.148;2023-08-20T00:06:57;19.00;99.90
10278;DHT22;5184;51.376;7.148;2023-08-20T00:09:24;19.00;99.90
10278;DHT22;5184;51.376;7.148;2023-08-20T00:11:51;19.00;99.90
10278;DHT22;5184;51.376;7.148;2023-08-20T00:14:17;19.00;99.90
10278;DHT22;5184;51.376;7.148;2023-08-20T00:16:44;19.00;99.90
10278;DHT22;5184;51.376;7.148;2023-08-20T00:19:11;19.00;99.90
10278;DHT22;5184;51.376;7.148;2023-08-20T00:21:41;19.00;99.90
10278;DHT22;5184;51.376;7.148;2023-08-20T00:24:08;19.00;99.90
10278;DHT22;5184;51.376;7.148;2023-08-20T00:26:35;18.90;99.90
10278;DHT22;5184;51.376;7.148;2023-08-20T00:29:02;18.90;99.90
10278;DHT22;5184;51.376;7.148;2023-08-20T00:31:28;18.90;99.90
10278;DHT22;5184;51.376;7.148;2023-08-20T00:33:55;18.90;99.90
10278;DHT22;5184;51.376;7.148;2023-08-20T00:36:22;18.80;99.90
10278;DHT22;5184;51.376;7.148;2023-08-20T00:38:49;18.80;99.90
10278;DHT22;5184;51.376;7.148;2023-08-20T00:41:16;18.80;99.90
10278;DHT22;5184;51.376;7.148;2023-08-20T00:43:42;18.90;99.90
10278;DHT22;5184;51.376;7.148;2023-08-20T00:46:09;18.80;99.90
10278;DHT22;5184;51.376;7.148;2023-08-20T00:48:35;18.80;99.90
10278;DHT22;5184;51.376;7.148;2023-08-20T00:51:02;18.50;99.90
10278;DHT22;5184;51.376;7.148;2023-08-20T00:53:29;18.80;99.90
10278;DHT22;5184;51.376;7.148;2023-08-20T00:55:57;18.80;99.90
10278;DHT22;5184;51.376;7.148;2023-08-20T00:58:23;18.70;99.90
10278;DHT22;5184;51.376;7.148;2023-08-20T01:00:50;18.70;99.90
10278;DHT22;5184;51.376;7.148;2023-08-20T01:03:16;18.70;99.90
10278;DHT22;5184;51.376;7.148;2023-08-20T01:05:46;18.70;99.90
10278;DHT22;5184;51.376;7.148;2023-08-20T01:08:19;18.60;99.90
10278;DHT22;5184;51.376;7.148;2023-08-20T01:10:45;18.60;99.90
10278;DHT22;5184;51.376;7.148;2023-08-20T01:13:09;18.60;99.90
10278;DHT22;5184;51.376;7.148;2023-08-20T01:15:36;18.60;99.90
10278;DHT22;5184;51.376;7.148;2023-08-20T01:18:02;18.60;99.90
10278;DHT22;5184;51.376;7.148;2023-08-20T01:20:30;18.60;99.90
10278;DHT22;5184;51.376;7.148;2023-08-20T01:23:12;18.50;99.90
10278;DHT22;5184;51.376;7.148;2023-08-20T01:25:42;18.50;99.90
10278;DHT22;5184;51.376;7.148;2023-08-20T01:30:38;18.50;99.90
10278;DHT22;5184;51.376;7.148;2023-08-20T01:33:05;18.40;99.90
10278;DHT22;5184;51.376;7.148;2023-08-20T01:35:33;18.40;99.90
10278;DHT22;5184;51.376;7.148;2023-08-20T01:37:59;18.40;99.90
10278;DHT22;5184;51.376;7.148;2023-08-20T01:40:26;18.40;99.90
10278;DHT22;5184;51.376;7.148;2023-08-20T01:42:54;18.40;99.90
10278;DHT22;5184;51.376;7.148;2023-08-20T01:45:20;18.40;99.90
10278;DHT22;5184;51.376;7.148;2023-08-20T01:47:47;18.40;99.90
10278;DHT22;5184;51.376;7.148;2023-08-20T01:50:14;18.40;99.90
10278;DHT22;5184;51.376;7.148;2023-08-20T01:52:41;18.30;99.90
10278;DHT22;5184;51.376;7.148;2023-08-20T01:55:08;18.30;99.90
10278;DHT22;5184;51.376;7.148;2023-08-20T01:57:34;18.30;99.90
10278;DHT22;5184;51.376;7.148;2023-08-20T02:00:01;18.30;99.90
10278;DHT22;5184;51.376;7.148;2023-08-20T02:02:27;18.30;99.90
10278;DHT22;5184;51.376;7.148;2023-08-20T02:04:54;18.40;99.90
10278;DHT22;5184;51.376;7.148;2023-08-20T02:07:21;18.30;99.90
10278;DHT22;5184;51.376;7.148;2023-08-20T02:09:48;18.30;99.90
10278;DHT22;5184;51.376;7.148;2023-08-20T02:12:15;18.30;99.90
10278;DHT22;5184;51.376;7.148;2023-08-20T02:14:41;18.30;99.90
10278;DHT22;5184;51.376;7.148;2023-08-20T02:17:09;18.30;99.90
10278;DHT22;5184;51.376;7.148;2023-08-20T02:19:35;18.30;99.90
10278;DHT22;5184;51.376;7.148;2023-08-20T02:22:02;18.30;99.90
10278;DHT22;5184;51.376;7.148;2023-08-20T02:24:28;18.30;99.90
10278;DHT22;5184;51.376;7.148;2023-08-20T02:26:56;18.20;99.90
10278;DHT22;5184;51.376;7.148;2023-08-20T02:29:23;18.10;99.90
10278;DHT22;5184;51.376;7.148;2023-08-20T02:31:49;18.20;99.90
10278;DHT22;5184;51.376;7.148;2023-08-20T02:34:16;18.10;99.90
10278;DHT22;5184;51.376;7.148;2023-08-20T02:36:43;18.10;99.90
10278;DHT22;5184;51.376;7.148;2023-08-20T02:39:10;18.30;99.90
10278;DHT22;5184;51.376;7.148;2023-08-20T02:41:37;18.10;99.90
10278;DHT22;5184;51.376;7.148;2023-08-20T02:44:04;18.10;99.90
10278;DHT22;5184;51.376;7.148;2023-08-20T02:46:30;18.10;99.90
10278;DHT22;5184;51.376;7.148;2023-08-20T02:48:57;18.10;99.90
10278;DHT22;5184;51.376;7.148;2023-08-20T02:51:24;18.10;99.90
10278;DHT22;5184;51.376;7.148;2023-08-20T02:53:51;18.10;99.90
10278;DHT22;5184;51.376;7.148;2023-08-20T02:56:17;18.10;99.90
10278;DHT22;5184;51.376;7.148;2023-08-20T02:58:44;18.10;99.90
10278;DHT22;5184;51.376;7.148;2023-08-20T03:01:20;18.10;99.90
10278;DHT22;5184;51.376;7.148;2023-08-20T03:03:45;18.10;99.90
10278;DHT22;5184;51.376;7.148;2023-08-20T03:06:12;18.20;99.90
10278;DHT22;5184;51.376;7.148;2023-08-20T03:08:39;18.10;99.90
10278;DHT22;5184;51.376;7.148;2023-08-20T03:11:05;18.20;99.90
10278;DHT22;5184;51.376;7.148;2023-08-20T03:13:32;18.20;99.90
10278;DHT22;5184;51.376;7.148;2023-08-20T03:15:59;18.20;99.90
10278;DHT22;5184;51.376;7.148;2023-08-20T03:18:27;18.10;99.90
10278;DHT22;5184;51.376;7.148;2023-08-20T03:20:54;18.20;99.90
10278;DHT22;5184;51.376;7.148;2023-08-20T03:23:21;18.10;99.90
10278;DHT22;5184;51.376;7.148;2023-08-20T03:25:47;18.10;99.90
10278;DHT22;5184;51.376;7.148;2023-08-20T03:28:14;18.10;99.90
10278;DHT22;5184;51.376;7.148;2023-08-20T03:30:40;18.10;99.90
10278;DHT22;5184;51.376;7.148;2023-08-20T03:33:08;18.00;99.90
10278;DHT22;5184;51.376;7.148;2023-08-20T03:35:34;18.00;99.90
10278;DHT22;5184;51.376;7.148;2023-08-20T03:38:01;18.00;99.90
10278;DHT22;5184;51.376;7.148;2023-08-20T03:40:28;17.90;99.90
10278;DHT22;5184;51.376;7.148;2023-08-20T03:42:55;17.90;99.90
10278;DHT22;5184;51.376;7.148;2023-08-20T03:45:22;17.90;99.90
10278;DHT22;5184;51.376;7.148;2023-08-20T03:47:49;17.90;99.90
10278;DHT22;5184;51.376;7.148;2023-08-20T03:50:15;18.00;99.90
10278;DHT22;5184;51.376;7.148;2023-08-20T03:52:42;18.00;99.90
10278;DHT22;5184;51.376;7.148;2023-08-20T03:55:09;18.00;99.90
10278;DHT22;5184;51.376;7.148;2023-08-20T03:57:37;18.10;99.90
10278;DHT22;5184;51.376;7.148;2023-08-20T04:00:04;18.00;99.90
10278;DHT22;5184;51.376;7.148;2023-08-20T04:02:30;18.00;99.90
10278;DHT22;5184;51.376;7.148;2023-08-20T04:04:57;18.00;99.90
10278;DHT22;5184;51.376;7.148;2023-08-20T04:07:24;17.90;99.90
10278;DHT22;5184;51.376;7.148;2023-08-20T04:09:52;17.80;99.90
10278;DHT22;5184;51.376;7.148;2023-08-20T04:12:18;17.80;99.90
10278;DHT22;5184;51.376;7.148;2023-08-20T04:14:46;17.90;99.90
10278;DHT22;5184;51.376;7.148;2023-08-20T04:17:13;17.90;99.90
10278;DHT22;5184;51.376;7.148;2023-08-20T04:19:40;17.80;99.90
10278;DHT22;5184;51.376;7.148;2023-08-20T04:22:06;17.90;99.90
10278;DHT22;5184;51.376;7.148;2023-08-20T04:27:13;17.80;99.90
10278;DHT22;5184;51.376;7.148;2023-08-20T04:29:40;17.80;99.90
10278;DHT22;5184;51.376;7.148;2023-08-20T04:32:07;17.80;99.90
10278;DHT22;5184;51.376;7.148;2023-08-20T04:34:33;17.80;99.90
10278;DHT22;5184;51.376;7.148;2023-08-20T04:37:00;17.80;99.90
10278;DHT22;5184;51.376;7.148;2023-08-20T04:39:27;17.70;99.90
10278;DHT22;5184;51.376;7.148;2023-08-20T04:41:55;17.60;99.90
10278;DHT22;5184;51.376;7.148;2023-08-20T04:44:21;17.60;99.90
10278;DHT22;5184;51.376;7.148;2023-08-20T04:46:48;17.60;99.90
10278;DHT22;5184;51.376;7.148;2023-08-20T04:49:14;17.70;99.90
10278;DHT22;5184;51.376;7.148;2023-08-20T04:51:42;17.70;99.90
10278;DHT22;5184;51.376;7.148;2023-08-20T04:54:09;17.70;99.90
10278;DHT22;5184;51.376;7.148;2023-08-20T04:56:36;17.60;99.90
10278;DHT22;5184;51.376;7.148;2023-08-20T04:59:02;17.70;99.90
10278;DHT22;5184;51.376;7.148;2023-08-20T05:01:29;17.70;99.90
10278;DHT22;5184;51.376;7.148;2023-08-20T05:03:56;17.80;99.90
10278;DHT22;5184;51.376;7.148;2023-08-20T05:06:22;17.80;99.90
10278;DHT22;5184;51.376;7.148;2023-08-20T05:08:50;17.80;99.90
10278;DHT22;5184;51.376;7.148;2023-08-20T05:11:17;17.80;99.90
10278;DHT22;5184;51.376;7.148;2023-08-20T05:13:44;17.70;99.90
10278;DHT22;5184;51.376;7.148;2023-08-20T05:16:10;17.80;99.90
10278;DHT22;5184;51.376;7.148;2023-08-20T05:18:37;17.80;99.90
10278;DHT22;5184;51.376;7.148;2023-08-20T05:21:03;17.80;99.90
10278;DHT22;5184;51.376;7.148;2023-08-20T05:23:30;17.90;99.90
10278;DHT22;5184;51.376;7.148;2023-08-20T05:25:57;17.90;99.90
10278;DHT22;5184;51.376;7.148;2023-08-20T05:28:24;17.90;99.90
10278;DHT22;5184;51.376;7.148;2023-08-20T05:30:55;17.90;99.90
10278;DHT22;5184;51.376;7.148;2023-08-20T05:33:21;17.80;99.90
10278;DHT22;5184;51.376;7.148;2023-08-20T05:35:47;17.80;99.90
10278;DHT22;5184;51.376;7.148;2023-08-20T05:38:14;17.80;99.90
10278;DHT22;5184;51.376;7.148;2023-08-20T05:40:41;17.90;99.90
10278;DHT22;5184;51.376;7.148;2023-08-20T05:43:09;17.90;99.90
10278;DHT22;5184;51.376;7.148;2023-08-20T05:45:35;17.90;99.90
10278;DHT22;5184;51.376;7.148;2023-08-20T05:48:02;17.90;99.90
10278;DHT22;5184;51.376;7.148;2023-08-20T05:50:29;17.90;99.90
10278;DHT22;5184;51.376;7.148;2023-08-20T05:52:57;17.80;99.90
10278;DHT22;5184;51.376;7.148;2023-08-20T05:55:23;17.80;99.90
10278;DHT22;5184;51.376;7.148;2023-08-20T05:57:50;17.90;99.90
10278;DHT22;5184;51.376;7.148;2023-08-20T06:00:16;17.90;99.90
10278;DHT22;5184;51.376;7.148;2023-08-20T06:02:44;17.90;99.90
10278;DHT22;5184;51.376;7.148;2023-08-20T06:05:11;17.90;99.90
10278;DHT22;5184;51.376;7.148;2023-08-20T06:07:38;17.90;99.90
10278;DHT22;5184;51.376;7.148;2023-08-20T06:10:05;17.90;99.90
10278;DHT22;5184;51.376;7.148;2023-08-20T06:12:32;18.10;99.90
10278;DHT22;5184;51.376;7.148;2023-08-20T06:14:59;18.00;99.90
10278;DHT22;5184;51.376;7.148;2023-08-20T06:17:26;18.10;99.90
10278;DHT22;5184;51.376;7.148;2023-08-20T06:19:52;18.10;99.90
10278;DHT22;5184;51.376;7.148;2023-08-20T06:22:19;18.20;99.90
10278;DHT22;5184;51.376;7.148;2023-08-20T06:24:46;18.30;99.90
10278;DHT22;5184;51.376;7.148;2023-08-20T06:27:14;18.40;99.90
10278;DHT22;5184;51.376;7.148;2023-08-20T06:29:40;18.40;99.90
10278;DHT22;5184;51.376;7.148;2023-08-20T06:32:07;18.50;99.90
10278;DHT22;5184;51.376;7.148;2023-08-20T06:34:34;18.50;99.90
10278;DHT22;5184;51.376;7.148;2023-08-20T06:37:00;18.60;99.90
10278;DHT22;5184;51.376;7.148;2023-08-20T06:39:27;18.80;99.90
10278;DHT22;5184;51.376;7.148;2023-08-20T06:41:54;18.70;99.90
10278;DHT22;5184;51.376;7.148;2023-08-20T06:44:21;18.90;99.90
10278;DHT22;5184;51.376;7.148;2023-08-20T06:46:47;18.90;99.90
10278;DHT22;5184;51.376;7.148;2023-08-20T06:49:14;19.00;99.90
10278;DHT22;5184;51.376;7.148;2023-08-20T06:51:40;19.10;99.90
10278;DHT22;5184;51.376;7.148;2023-08-20T06:54:07;19.20;99.90
10278;DHT22;5184;51.376;7.148;2023-08-20T06:56:34;19.40;99.90
10278;DHT22;5184;51.376;7.148;2023-08-20T06:59:02;19.50;99.90
10278;DHT22;5184;51.376;7.148;2023-08-20T07:01:29;19.50;99.90
10278;DHT22;5184;51.376;7.148;2023-08-20T07:03:55;19.60;99.90
10278;DHT22;5184;51.376;7.148;2023-08-20T07:06:22;19.80;99.90
10278;DHT22;5184;51.376;7.148;2023-08-20T07:08:50;20.00;99.90
10278;DHT22;5184;51.376;7.148;2023-08-20T07:11:16;19.90;99.90
10278;DHT22;5184;51.376;7.148;2023-08-20T07:13:43;20.00;99.90
10278;DHT22;5184;51.376;7.148;2023-08-20T07:16:10;20.10;99.90
10278;DHT22;5184;51.376;7.148;2023-08-20T07:18:36;20.10;99.90
10278;DHT22;5184;51.376;7.148;2023-08-20T07:21:03;20.30;99.90
10278;DHT22;5184;51.376;7.148;2023-08-20T07:23:29;20.30;99.90
10278;DHT22;5184;51.376;7.148;2023-08-20T07:26:05;20.40;99.90
10278;DHT22;5184;51.376;7.148;2023-08-20T07:28:30;20.50;99.90
10278;DHT22;5184;51.376;7.148;2023-08-20T07:31:03;20.60;99.90
10278;DHT22;5184;51.376;7.148;2023-08-20T07:33:29;20.70;99.90
10278;DHT22;5184;51.376;7.148;2023-08-20T07:35:56;20.90;99.90
10278;DHT22;5184;51.376;7.148;2023-08-20T07:38:22;21.00;99.90
10278;DHT22;5184;51.376;7.148;2023-08-20T07:40:49;21.00;99.90
10278;DHT22;5184;51.376;7.148;2023-08-20T07:43:16;21.20;99.90
10278;DHT22;5184;51.376;7.148;2023-08-20T07:45:43;21.30;99.90
10278;DHT22;5184;51.376;7.148;2023-08-20T07:48:10;21.40;99.90
10278;DHT22;5184;51.376;7.148;2023-08-20T07:50:37;21.40;99.90
10278;DHT22;5184;51.376;7.148;2023-08-20T07:53:04;21.50;99.90
10278;DHT22;5184;51.376;7.148;2023-08-20T07:55:31;21.70;99.90
10278;DHT22;5184;51.376;7.148;2023-08-20T07:57:58;21.70;99.90
10278;DHT22;5184;51.376;7.148;2023-08-20T08:00:24;21.80;99.90
10278;DHT22;5184;51.376;7.148;2023-08-20T08:02:51;22.00;99.90
10278;DHT22;5184;51.376;7.148;2023-08-20T08:05:18;22.20;99.90
10278;DHT22;5184;51.376;7.148;2023-08-20T08:07:45;22.30;99.90
10278;DHT22;5184;51.376;7.148;2023-08-20T08:10:12;22.20;99.90
10278;DHT22;5184;51.376;7.148;2023-08-20T08:12:39;22.40;99.90
10278;DHT22;5184;51.376;7.148;2023-08-20T08:15:07;22.50;99.90
10278;DHT22;5184;51.376;7.148;2023-08-20T08:17:33;22.50;99.90
10278;DHT22;5184;51.376;7.148;2023-08-20T08:20:00;22.60;99.90
10278;DHT22;5184;51.376;7.148;2023-08-20T08:22:27;22.90;99.90
10278;DHT22;5184;51.376;7.148;2023-08-20T08:24:54;22.80;99.90
10278;DHT22;5184;51.376;7.148;2023-08-20T08:27:21;23.00;99.90
10278;DHT22;5184;51.376;7.148;2023-08-20T08:29:47;23.10;99.90
10278;DHT22;5184;51.376;7.148;2023-08-20T08:32:15;23.30;99.90
10278;DHT22;5184;51.376;7.148;2023-08-20T08:34:41;23.30;99.90
10278;DHT22;5184;51.376;7.148;2023-08-20T08:37:08;23.50;99.90
10278;DHT22;5184;51.376;7.148;2023-08-20T08:39:34;23.60;99.90
10278;DHT22;5184;51.376;7.148;2023-08-20T08:42:03;23.90;99.90
10278;DHT22;5184;51.376;7.148;2023-08-20T08:44:31;23.70;99.90
10278;DHT22;5184;51.376;7.148;2023-08-20T08:46:58;23.80;99.90
10278;DHT22;5184;51.376;7.148;2023-08-20T08:49:25;23.80;99.90
10278;DHT22;5184;51.376;7.148;2023-08-20T08:51:53;24.00;99.90
10278;DHT22;5184;51.376;7.148;2023-08-20T08:54:21;24.10;99.90
10278;DHT22;5184;51.376;7.148;2023-08-20T08:56:47;24.10;99.90
10278;DHT22;5184;51.376;7.148;2023-08-20T08:59:14;24.20;99.90
10278;DHT22;5184;51.376;7.148;2023-08-20T09:01:41;24.20;99.90
10278;DHT22;5184;51.376;7.148;2023-08-20T09:04:08;24.40;99.90
10278;DHT22;5184;51.376;7.148;2023-08-20T09:06:51;24.50;99.90
10278;DHT22;5184;51.376;7.148;2023-08-20T09:09:17;24.50;99.90
10278;DHT22;5184;51.376;7.148;2023-08-20T09:11:44;24.70;99.90
10278;DHT22;5184;51.376;7.148;2023-08-20T09:14:22;24.80;99.90
10278;DHT22;5184;51.376;7.148;2023-08-20T09:16:59;24.80;99.90
10278;DHT22;5184;51.376;7.148;2023-08-20T09:19:28;24.90;99.90
10278;DHT22;5184;51.376;7.148;2023-08-20T09:21:51;25.00;99.90
10278;DHT22;5184;51.376;7.148;2023-08-20T09:24:26;25.20;99.90
10278;DHT22;5184;51.376;7.148;2023-08-20T09:26:59;25.20;99.90
10278;DHT22;5184;51.376;7.148;2023-08-20T09:29:26;25.10;99.90
10278;DHT22;5184;51.376;7.148;2023-08-20T09:31:59;25.10;99.90
10278;DHT22;5184;51.376;7.148;2023-08-20T09:34:21;24.90;99.90
10278;DHT22;5184;51.376;7.148;2023-08-20T09:36:48;24.80;99.90
10278;DHT22;5184;51.376;7.148;2023-08-20T09:39:15;24.70;99.90
10278;DHT22;5184;51.376;7.148;2023-08-20T09:41:42;24.70;99.90
10278;DHT22;5184;51.376;7.148;2023-08-20T09:44:09;24.80;99.90
10278;DHT22;5184;51.376;7.148;2023-08-20T09:46:35;24.80;99.90
10278;DHT22;5184;51.376;7.148;2023-08-20T09:49:02;24.80;99.90
10278;DHT22;5184;51.376;7.148;2023-08-20T09:51:29;24.60;99.90
10278;DHT22;5184;51.376;7.148;2023-08-20T09:54:17;24.60;99.90
10278;DHT22;5184;51.376;7.148;2023-08-20T09:56:40;24.50;99.90
10278;DHT22;5184;51.376;7.148;2023-08-20T09:59:07;24.50;99.90
10278;DHT22;5184;51.376;7.148;2023-08-20T10:01:33;24.60;99.90
10278;DHT22;5184;51.376;7.148;2023-08-20T10:04:01;25.00;99.90
10278;DHT22;5184;51.376;7.148;2023-08-20T10:06:29;25.10;99.90
10278;DHT22;5184;51.376;7.148;2023-08-20T10:08:55;25.10;99.90
10278;DHT22;5184;51.376;7.148;2023-08-20T10:11:22;25.20;99.90
10278;DHT22;5184;51.376;7.148;2023-08-20T10:13:49;25.30;99.90
10278;DHT22;5184;51.376;7.148;2023-08-20T10:16:18;25.00;99.90
10278;DHT22;5184;51.376;7.148;2023-08-20T10:18:46;25.20;99.90
10278;DHT22;5184;51.376;7.148;2023-08-20T10:21:13;25.20;99.90
10278;DHT22;5184;51.376;7.148;2023-08-20T10:23:40;25.20;99.90
10278;DHT22;5184;51.376;7.148;2023-08-20T10:26:08;25.20;99.90
10278;DHT22;5184;51.376;7.148;2023-08-20T10:28:34;25.20;99.90
10278;DHT22;5184;51.376;7.148;2023-08-20T10:31:07;25.40;99.90
10278;DHT22;5184;51.376;7.148;2023-08-20T10:33:35;25.40;99.90
10278;DHT22;5184;51.376;7.148;2023-08-20T10:36:12;25.60;99.90
10278;DHT22;5184;51.376;7.148;2023-08-20T10:38:36;25.70;99.90
10278;DHT22;5184;51.376;7.148;2023-08-20T10:41:05;25.80;99.90
10278;DHT22;5184;51.376;7.148;2023-08-20T10:43:46;25.70;99.90
10278;DHT22;5184;51.376;7.148;2023-08-20T10:46:17;25.70;99.90
10278;DHT22;5184;51.376;7.148;2023-08-20T10:48:48;25.60;99.90
10278;DHT22;5184;51.376;7.148;2023-08-20T10:51:16;25.50;99.90
10278;DHT22;5184;51.376;7.148;2023-08-20T10:53:42;25.40;99.90
10278;DHT22;5184;51.376;7.148;2023-08-20T10:56:11;25.40;99.90
10278;DHT22;5184;51.376;7.148;2023-08-20T10:58:38;25.40;99.90
10278;DHT22;5184;51.376;7.148;2023-08-20T11:01:16;25.50;99.90
10278;DHT22;5184;51.376;7.148;2023-08-20T11:03:45;25.60;99.90
10278;DHT22;5184;51.376;7.148;2023-08-20T11:06:11;25.70;99.90
10278;DHT22;5184;51.376;7.148;2023-08-20T11:08:38;25.80;99.90
10278;DHT22;5184;51.376;7.148;2023-08-20T11:11:04;25.70;99.90
10278;DHT22;5184;51.376;7.148;2023-08-20T11:13:32;25.70;99.90
10278;DHT22;5184;51.376;7.148;2023-08-20T11:15:59;25.60;99.90
10278;DHT22;5184;51.376;7.148;2023-08-20T11:18:26;25.60;99.90
10278;DHT22;5184;51.376;7.148;2023-08-20T11:20:53;25.60;99.90
10278;DHT22;5184;51.376;7.148;2023-08-20T11:23:19;25.70;99.90
10278;DHT22;5184;51.376;7.148;2023-08-20T11:25:46;25.80;99.90
10278;DHT22;5184;51.376;7.148;2023-08-20T11:28:13;25.80;99.90
10278;DHT22;5184;51.376;7.148;2023-08-20T11:30:40;26.10;99.90
10278;DHT22;5184;51.376;7.148;2023-08-20T11:33:08;26.20;99.90
10278;DHT22;5184;51.376;7.148;2023-08-20T11:35:35;26.20;99.90
10278;DHT22;5184;51.376;7.148;2023-08-20T11:38:03;26.20;99.90
10278;DHT22;5184;51.376;7.148;2023-08-20T11:40:29;26.30;99.90
10278;DHT22;5184;51.376;7.148;2023-08-20T11:42:55;26.20;99.90
10278;DHT22;5184;51.376;7.148;2023-08-20T11:45:22;26.10;99.90
10278;DHT22;5184;51.376;7.148;2023-08-20T11:47:49;26.20;99.90
10278;DHT22;5184;51.376;7.148;2023-08-20T11:50:16;26.50;99.90
10278;DHT22;5184;51.376;7.148;2023-08-20T11:52:43;26.50;99.90
10278;DHT22;5184;51.376;7.148;2023-08-20T11:55:09;26.60;99.90
10278;DHT22;5184;51.376;7.148;2023-08-20T11:57:36;26.80;99.90
10278;DHT22;5184;51.376;7.148;2023-08-20T12:00:04;27.00;99.90
10278;DHT22;5184;51.376;7.148;2023-08-20T12:02:30;27.00;99.90
10278;DHT22;5184;51.376;7.148;2023-08-20T12:04:58;27.00;99.90
10278;DHT22;5184;51.376;7.148;2023-08-20T12:07:25;27.00;99.90
10278;DHT22;5184;51.376;7.148;2023-08-20T12:09:52;27.00;99.90
10278;DHT22;5184;51.376;7.148;2023-08-20T12:12:19;26.60;99.90
10278;DHT22;5184;51.376;7.148;2023-08-20T12:14:46;26.60;99.90
10278;DHT22;5184;51.376;7.148;2023-08-20T12:17:16;26.60;99.90
10278;DHT22;5184;51.376;7.148;2023-08-20T12:19:39;26.50;99.90
10278;DHT22;5184;51.376;7.148;2023-08-20T12:22:06;26.70;99.90
10278;DHT22;5184;51.376;7.148;2023-08-20T12:24:34;26.90;99.90
10278;DHT22;5184;51.376;7.148;2023-08-20T12:27:00;26.80;99.90
10278;DHT22;5184;51.376;7.148;2023-08-20T12:29:27;26.90;99.90
10278;DHT22;5184;51.376;7.148;2023-08-20T12:31:54;26.90;99.90
10278;DHT22;5184;51.376;7.148;2023-08-20T12:34:21;26.80;99.90
10278;DHT22;5184;51.376;7.148;2023-08-20T12:36:48;26.80;99.90
10278;DHT22;5184;51.376;7.148;2023-08-20T12:39:14;27.00;99.90
10278;DHT22;5184;51.376;7.148;2023-08-20T12:41:41;27.10;99.90
10278;DHT22;5184;51.376;7.148;2023-08-20T12:44:08;27.20;99.90
10278;DHT22;5184;51.376;7.148;2023-08-20T12:46:35;27.20;99.90
10278;DHT22;5184;51.376;7.148;2023-08-20T12:49:01;27.20;99.90
10278;DHT22;5184;51.376;7.148;2023-08-20T12:51:28;27.00;99.90
10278;DHT22;5184;51.376;7.148;2023-08-20T12:53:55;27.10;99.90
10278;DHT22;5184;51.376;7.148;2023-08-20T12:56:22;27.10;99.50
10278;DHT22;5184;51.376;7.148;2023-08-20T12:58:49;27.40;99.90
10278;DHT22;5184;51.376;7.148;2023-08-20T13:01:15;27.40;99.90
10278;DHT22;5184;51.376;7.148;2023-08-20T13:03:43;27.50;99.90
10278;DHT22;5184;51.376;7.148;2023-08-20T13:06:10;27.50;99.90
10278;DHT22;5184;51.376;7.148;2023-08-20T13:08:37;27.50;99.90
10278;DHT22;5184;51.376;7.148;2023-08-20T13:11:04;27.50;99.90
10278;DHT22;5184;51.376;7.148;2023-08-20T13:13:31;27.50;99.90
10278;DHT22;5184;51.376;7.148;2023-08-20T13:15:58;27.40;84.10
10278;DHT22;5184;51.376;7.148;2023-08-20T13:18:26;27.50;99.90
10278;DHT22;5184;51.376;7.148;2023-08-20T13:20:52;27.50;99.90
10278;DHT22;5184;51.376;7.148;2023-08-20T13:23:20;27.70;72.10
10278;DHT22;5184;51.376;7.148;2023-08-20T13:25:47;27.70;55.00
10278;DHT22;5184;51.376;7.148;2023-08-20T13:28:14;27.70;55.70
10278;DHT22;5184;51.376;7.148;2023-08-20T13:30:40;27.80;64.60
10278;DHT22;5184;51.376;7.148;2023-08-20T13:33:07;28.00;55.30
10278;DHT22;5184;51.376;7.148;2023-08-20T13:35:33;28.20;34.80
10278;DHT22;5184;51.376;7.148;2023-08-20T13:38:00;28.20;1.00
10278;DHT22;5184;51.376;7.148;2023-08-20T13:40:27;28.30;1.00
10278;DHT22;5184;51.376;7.148;2023-08-20T13:42:54;28.30;1.00
10278;DHT22;5184;51.376;7.148;2023-08-20T13:45:21;28.50;1.00
10278;DHT22;5184;51.376;7.148;2023-08-20T13:47:48;28.60;1.00
10278;DHT22;5184;51.376;7.148;2023-08-20T13:50:15;28.40;33.90
10278;DHT22;5184;51.376;7.148;2023-08-20T13:52:43;28.30;38.20
10278;DHT22;5184;51.376;7.148;2023-08-20T13:55:09;28.30;26.20
10278;DHT22;5184;51.376;7.148;2023-08-20T13:57:36;28.40;65.30
10278;DHT22;5184;51.376;7.148;2023-08-20T14:00:03;28.50;80.20
10278;DHT22;5184;51.376;7.148;2023-08-20T14:02:30;28.60;46.20
10278;DHT22;5184;51.376;7.148;2023-08-20T14:04:56;28.80;3.30
10278;DHT22;5184;51.376;7.148;2023-08-20T14:07:24;28.50;47.00
10278;DHT22;5184;51.376;7.148;2023-08-20T14:09:51;28.60;1.00
10278;DHT22;5184;51.376;7.148;2023-08-20T14:12:18;28.60;1.00
10278;DHT22;5184;51.376;7.148;2023-08-20T14:14:46;28.50;43.30
10278;DHT22;5184;51.376;7.148;2023-08-20T14:17:12;28.50;19.60
10278;DHT22;5184;51.376;7.148;2023-08-20T14:19:39;28.60;25.30
10278;DHT22;5184;51.376;7.148;2023-08-20T14:22:06;28.80;59.80
10278;DHT22;5184;51.376;7.148;2023-08-20T14:24:33;29.20;1.00
10278;DHT22;5184;51.376;7.148;2023-08-20T14:27:00;29.40;1.00
10278;DHT22;5184;51.376;7.148;2023-08-20T14:29:28;29.60;1.00
10278;DHT22;5184;51.376;7.148;2023-08-20T14:31:55;29.70;1.00
10278;DHT22;5184;51.376;7.148;2023-08-20T14:34:22;29.40;1.00
10278;DHT22;5184;51.376;7.148;2023-08-20T14:36:49;29.40;1.00
10278;DHT22;5184;51.376;7.148;2023-08-20T14:39:16;29.40;1.00
10278;DHT22;5184;51.376;7.148;2023-08-20T14:41:42;29.40;1.00
10278;DHT22;5184;51.376;7.148;2023-08-20T14:44:09;29.40;1.00
10278;DHT22;5184;51.376;7.148;2023-08-20T14:46:35;29.20;1.00
10278;DHT22;5184;51.376;7.148;2023-08-20T14:49:03;29.40;1.00
10278;DHT22;5184;51.376;7.148;2023-08-20T14:51:29;29.40;1.00
10278;DHT22;5184;51.376;7.148;2023-08-20T14:53:57;29.50;1.00
10278;DHT22;5184;51.376;7.148;2023-08-20T14:56:24;30.00;1.00
10278;DHT22;5184;51.376;7.148;2023-08-20T14:58:51;30.00;1.00
10278;DHT22;5184;51.376;7.148;2023-08-20T15:01:17;30.60;1.00
10278;DHT22;5184;51.376;7.148;2023-08-20T15:03:44;31.40;1.00
10278;DHT22;5184;51.376;7.148;2023-08-20T15:06:10;32.40;1.00
10278;DHT22;5184;51.376;7.148;2023-08-20T15:08:37;33.20;1.00
10278;DHT22;5184;51.376;7.148;2023-08-20T15:11:04;34.20;1.00
10278;DHT22;5184;51.376;7.148;2023-08-20T15:13:32;34.10;1.00
10278;DHT22;5184;51.376;7.148;2023-08-20T15:15:58;34.10;1.00
10278;DHT22;5184;51.376;7.148;2023-08-20T15:18:25;33.70;1.00
10278;DHT22;5184;51.376;7.148;2023-08-20T15:20:55;33.50;1.00
10278;DHT22;5184;51.376;7.148;2023-08-20T15:23:21;33.40;1.00
10278;DHT22;5184;51.376;7.148;2023-08-20T15:25:47;33.00;1.00
10278;DHT22;5184;51.376;7.148;2023-08-20T15:28:14;33.00;1.00
10278;DHT22;5184;51.376;7.148;2023-08-20T15:30:40;33.10;1.00
10278;DHT22;5184;51.376;7.148;2023-08-20T15:33:07;33.00;1.00
10278;DHT22;5184;51.376;7.148;2023-08-20T15:35:34;32.50;1.00
10278;DHT22;5184;51.376;7.148;2023-08-20T15:38:02;32.30;1.00
10278;DHT22;5184;51.376;7.148;2023-08-20T15:40:28;32.30;99.90
10278;DHT22;5184;51.376;7.148;2023-08-20T15:42:55;32.10;1.00
10278;DHT22;5184;51.376;7.148;2023-08-20T15:45:22;31.90;1.00
10278;DHT22;5184;51.376;7.148;2023-08-20T15:47:48;31.70;1.00
10278;DHT22;5184;51.376;7.148;2023-08-20T15:50:15;31.50;1.00
10278;DHT22;5184;51.376;7.148;2023-08-20T15:52:41;31.30;1.00